Time;durP1;ratioP1;P1;durP2;ratioP2;P2;SDS_P1;SDS_P2;PMS_P1;PMS_P2;Temp;Humidity;BMP_temperature;BMP_pressure;BME280_temperature;BME280_humidity;BME280_pressure;Samples;Min_cycle;Max_cycle;Signal;HPM_P1;HPM_P2
2021/01/19 00:02:20;;;;;;;18.95;10.52;;;;;;;;;;5082514;28;20207;-73
2021/01/19 00:04:46;;;;;;;20.95;9.82;;;;;;;;;;5088947;28;20219;-72
2021/01/19 00:07:12;;;;;;;16.33;10.23;;;;;;;;;;5072022;28;20212;-74
2021/01/19 00:09:38;;;;;;;15.57;10.07;;;;;;;;;;5085311;28;20191;-72
2021/01/19 00:12:04;;;;;;;21.30;10.20;;;;;;;;;;5091978;28;20195;-73
2021/01/19 00:14:30;;;;;;;25.85;17.02;;;;;;;;;;5086378;28;20233;-73
2021/01/19 00:16:56;;;;;;;18.50;10.75;;;;;;;;;;5072241;28;20188;-74
2021/01/19 00:19:22;;;;;;;21.77;12.65;;;;;;;;;;5077028;28;20248;-72
2021/01/19 00:21:48;;;;;;;18.80;12.15;;;;;;;;;;5089421;28;20755;-72
2021/01/19 00:24:14;;;;;;;15.50;11.70;;;;;;;;;;5086794;28;20240;-73
2021/01/19 00:26:40;;;;;;;20.77;14.10;;;;;;;;;;5084879;28;20182;-73
2021/01/19 00:29:06;;;;;;;18.50;12.25;;;;;;;;;;5079406;28;20180;-72
2021/01/19 00:31:33;;;;;;;25.23;14.30;;;;;;;;;;5081078;28;20527;-73
2021/01/19 00:33:59;;;;;;;25.92;13.95;;;;;;;;;;5076777;28;20191;-73
2021/01/19 00:36:25;;;;;;;22.65;13.95;;;;;;;;;;5091357;28;20575;-72
2021/01/19 00:38:51;;;;;;;22.25;13.95;;;;;;;;;;5090198;28;20213;-72
2021/01/19 00:41:17;;;;;;;25.17;14.77;;;;;;;;;;5075922;28;20221;-73
2021/01/19 00:43:42;;;;;;;19.95;14.32;;;;;;;;;;5074523;28;20179;-72
2021/01/19 00:46:09;;;;;;;23.25;15.63;;;;;;;;;;5089370;28;20186;-72
2021/01/19 00:48:35;;;;;;;22.98;13.20;;;;;;;;;;5079490;28;20206;-73
2021/01/19 00:51:01;;;;;;;25.77;16.55;;;;;;;;;;5091569;28;20187;-74
2021/01/19 00:53:27;;;;;;;24.38;15.45;;;;;;;;;;5091377;28;20175;-72
2021/01/19 00:55:53;;;;;;;22.52;16.40;;;;;;;;;;5070730;28;20172;-71
2021/01/19 00:58:19;;;;;;;27.17;16.60;;;;;;;;;;5074750;28;20187;-72
2021/01/19 01:00:45;;;;;;;26.77;15.80;;;;;;;;;;5089737;28;20186;-72
2021/01/19 01:03:11;;;;;;;26.00;16.50;;;;;;;;;;5092203;28;20564;-72
2021/01/19 01:05:37;;;;;;;25.55;16.17;;;;;;;;;;5075870;28;20195;-71
2021/01/19 01:08:03;;;;;;;23.33;16.10;;;;;;;;;;5083759;28;20290;-72
2021/01/19 01:10:29;;;;;;;25.45;15.68;;;;;;;;;;5094478;28;20247;-74
2021/01/19 01:12:55;;;;;;;22.50;16.60;;;;;;;;;;5095132;28;20517;-75
2021/01/19 01:15:32;;;;;;;22.52;15.90;;;;;;;;;;5094026;28;20213;-74
2021/01/19 01:17:58;;;;;;;21.20;15.70;;;;;;;;;;5094982;28;20638;-74
2021/01/19 01:20:24;;;;;;;28.02;16.73;;;;;;;;;;5088325;28;20569;-73
2021/01/19 01:22:50;;;;;;;23.60;16.30;;;;;;;;;;5074584;28;20192;-74
2021/01/19 01:25:16;;;;;;;24.08;15.70;;;;;;;;;;5087813;28;20183;-74
2021/01/19 01:27:43;;;;;;;22.10;16.77;;;;;;;;;;5094454;28;20199;-73
2021/01/19 01:30:10;;;;;;;26.58;17.42;;;;;;;;;;5094088;28;20182;-72
2021/01/19 01:32:48;;;;;;;26.25;16.55;;;;;;;;;;5090346;28;20205;-73
2021/01/19 01:35:14;;;;;;;26.60;17.25;;;;;;;;;;5085850;28;20178;-72
2021/01/19 01:37:44;;;;;;;27.15;17.70;;;;;;;;;;5092944;28;20245;-73
2021/01/19 01:40:11;;;;;;;22.83;15.80;;;;;;;;;;5085772;28;20172;-72
2021/01/19 01:42:37;;;;;;;22.25;15.55;;;;;;;;;;5090374;28;20206;-73
2021/01/19 01:45:03;;;;;;;24.40;16.80;;;;;;;;;;5085675;28;20255;-74
2021/01/19 01:47:29;;;;;;;25.05;16.65;;;;;;;;;;5085518;28;20291;-73
2021/01/19 01:49:55;;;;;;;24.17;17.13;;;;;;;;;;5084305;28;20168;-72
2021/01/19 01:52:22;;;;;;;26.15;17.00;;;;;;;;;;5079419;28;20548;-73
2021/01/19 01:54:49;;;;;;;30.23;18.15;;;;;;;;;;5084913;28;20179;-73
2021/01/19 01:57:16;;;;;;;24.45;16.95;;;;;;;;;;5085131;28;20171;-73
2021/01/19 01:59:42;;;;;;;24.13;16.75;;;;;;;;;;5093222;28;20614;-72
2021/01/19 02:02:11;;;;;;;23.90;15.88;;;;;;;;;;5083475;28;20211;-74
2021/01/19 02:04:38;;;;;;;26.73;17.02;;;;;;;;;;5086166;28;20175;-73
2021/01/19 02:07:12;;;;;;;30.17;17.15;;;;;;;;;;5090073;28;20233;-74
2021/01/19 02:09:42;;;;;;;30.65;16.58;;;;;;;;;;5097020;28;20247;-74
2021/01/19 02:12:14;;;;;;;29.38;16.85;;;;;;;;;;5078006;28;20245;-75
2021/01/19 02:14:42;;;;;;;33.75;17.60;;;;;;;;;;5084052;28;20179;-74
2021/01/19 02:17:17;;;;;;;27.65;17.35;;;;;;;;;;5093234;28;20175;-74
2021/01/19 02:20:02;;;;;;;26.25;18.17;;;;;;;;;;5087461;28;20180;-74
2021/01/19 02:22:31;;;;;;;26.95;16.92;;;;;;;;;;5081085;28;20195;-72
2021/01/19 02:25:10;;;;;;;27.52;18.13;;;;;;;;;;5092264;28;20174;-72
2021/01/19 02:27:58;;;;;;;26.13;18.50;;;;;;;;;;5091563;28;20198;-73
2021/01/19 02:30:39;;;;;;;29.88;17.95;;;;;;;;;;5093398;28;20247;-73
2021/01/19 02:33:09;;;;;;;27.63;18.33;;;;;;;;;;5084726;28;20200;-75
2021/01/19 02:35:40;;;;;;;28.08;18.27;;;;;;;;;;5072793;28;20245;-73
2021/01/19 02:38:12;;;;;;;24.35;17.80;;;;;;;;;;5081964;28;20183;-72
2021/01/19 02:40:39;;;;;;;28.45;19.73;;;;;;;;;;5091069;28;20167;-73
2021/01/19 02:43:12;;;;;;;28.63;19.17;;;;;;;;;;5087645;28;20253;-73
2021/01/19 02:45:38;;;;;;;26.67;17.83;;;;;;;;;;5084513;28;20176;-72
2021/01/19 02:48:05;;;;;;;29.33;19.88;;;;;;;;;;5090513;28;20281;-72
2021/01/19 02:50:32;;;;;;;33.17;20.00;;;;;;;;;;5075338;28;20180;-73
2021/01/19 02:52:59;;;;;;;34.03;22.23;;;;;;;;;;5085378;28;20195;-72
2021/01/19 02:55:25;;;;;;;34.55;21.08;;;;;;;;;;5092853;28;20184;-73
2021/01/19 02:57:57;;;;;;;38.58;21.92;;;;;;;;;;5092816;28;20217;-71
2021/01/19 03:00:34;;;;;;;35.47;23.33;;;;;;;;;;5085236;28;20183;-73
2021/01/19 03:03:01;;;;;;;36.20;21.23;;;;;;;;;;5089938;28;20199;-73
2021/01/19 03:05:29;;;;;;;33.47;21.50;;;;;;;;;;5080746;28;20826;-72
2021/01/19 03:07:55;;;;;;;35.22;21.92;;;;;;;;;;5093045;28;20213;-72
2021/01/19 03:10:21;;;;;;;35.72;22.65;;;;;;;;;;5102062;28;20171;-72
2021/01/19 03:12:47;;;;;;;30.95;20.77;;;;;;;;;;5092707;28;20195;-72
2021/01/19 03:15:15;;;;;;;37.72;22.92;;;;;;;;;;5092861;28;20174;-74
2021/01/19 03:17:43;;;;;;;30.67;22.80;;;;;;;;;;5095427;28;20171;-75
2021/01/19 03:20:10;;;;;;;32.45;22.15;;;;;;;;;;5089089;28;20181;-76
2021/01/19 03:22:36;;;;;;;34.13;22.15;;;;;;;;;;5088636;28;21016;-73
2021/01/19 03:25:02;;;;;;;32.20;20.70;;;;;;;;;;5076647;28;20182;-73
2021/01/19 03:27:28;;;;;;;35.35;23.27;;;;;;;;;;5090948;28;20198;-73
2021/01/19 03:29:54;;;;;;;34.10;22.00;;;;;;;;;;5091717;28;20234;-75
2021/01/19 03:32:20;;;;;;;29.92;21.10;;;;;;;;;;5092588;28;20199;-72
2021/01/19 03:34:46;;;;;;;36.70;21.85;;;;;;;;;;5096521;28;20278;-74
2021/01/19 03:37:12;;;;;;;36.15;23.90;;;;;;;;;;5096045;28;20278;-74
2021/01/19 03:39:38;;;;;;;32.90;22.30;;;;;;;;;;5088361;28;20172;-72
2021/01/19 03:42:04;;;;;;;34.42;22.75;;;;;;;;;;5076383;28;20337;-72
2021/01/19 03:44:30;;;;;;;34.45;21.58;;;;;;;;;;5084111;28;20175;-72
2021/01/19 03:46:56;;;;;;;35.47;23.20;;;;;;;;;;5089308;28;20183;-73
2021/01/19 03:49:22;;;;;;;31.25;22.60;;;;;;;;;;5089466;28;20176;-73
2021/01/19 03:51:48;;;;;;;37.92;22.83;;;;;;;;;;5096000;28;20192;-72
2021/01/19 03:54:14;;;;;;;33.40;21.88;;;;;;;;;;5096084;28;20582;-74
2021/01/19 03:56:40;;;;;;;33.75;23.30;;;;;;;;;;5080305;28;20176;-73
2021/01/19 03:59:06;;;;;;;37.35;23.60;;;;;;;;;;5095630;28;20305;-73
2021/01/19 04:01:32;;;;;;;34.33;22.77;;;;;;;;;;5082284;28;20261;-74
2021/01/19 04:03:58;;;;;;;36.17;23.60;;;;;;;;;;5096024;28;20578;-74
2021/01/19 04:06:24;;;;;;;34.72;23.20;;;;;;;;;;5095267;28;20191;-74
2021/01/19 04:08:50;;;;;;;35.85;23.40;;;;;;;;;;5097518;28;20244;-74
2021/01/19 04:11:16;;;;;;;34.20;22.45;;;;;;;;;;5095672;28;20559;-73
2021/01/19 04:13:42;;;;;;;37.95;22.80;;;;;;;;;;5095470;28;20544;-73
2021/01/19 04:16:08;;;;;;;36.65;23.65;;;;;;;;;;5079743;28;20188;-73
2021/01/19 04:18:34;;;;;;;32.28;23.60;;;;;;;;;;5088172;28;20258;-74
2021/01/19 04:21:00;;;;;;;34.78;23.90;;;;;;;;;;5092760;28;20259;-74
2021/01/19 04:23:26;;;;;;;42.60;25.65;;;;;;;;;;5075982;28;20529;-74
2021/01/19 04:25:52;;;;;;;36.42;22.30;;;;;;;;;;5086193;28;20171;-73
2021/01/19 04:28:18;;;;;;;33.97;22.73;;;;;;;;;;5086585;28;20203;-73
2021/01/19 04:30:47;;;;;;;42.00;23.88;;;;;;;;;;5095746;28;20258;-75
2021/01/19 04:33:13;;;;;;;35.28;22.65;;;;;;;;;;5094548;28;20977;-72
2021/01/19 04:35:39;;;;;;;37.95;24.25;;;;;;;;;;5091928;28;20521;-72
2021/01/19 04:38:05;;;;;;;39.50;25.42;;;;;;;;;;5095259;28;20167;-73
2021/01/19 04:40:31;;;;;;;39.80;24.98;;;;;;;;;;5094545;28;20242;-72
2021/01/19 04:42:57;;;;;;;40.45;25.13;;;;;;;;;;5095241;28;20195;-72
2021/01/19 04:45:23;;;;;;;37.38;21.42;;;;;;;;;;5078312;28;20172;-72
2021/01/19 04:47:49;;;;;;;37.33;24.67;;;;;;;;;;5081635;28;20595;-71
2021/01/19 04:50:15;;;;;;;34.72;21.85;;;;;;;;;;5091928;28;20181;-73
2021/01/19 04:52:45;;;;;;;31.95;20.88;;;;;;;;;;5094631;28;20195;-71
2021/01/19 04:55:11;;;;;;;32.97;19.20;;;;;;;;;;5094429;28;20214;-73
2021/01/19 04:57:38;;;;;;;35.40;21.08;;;;;;;;;;5095364;28;20512;-74
2021/01/19 05:00:11;;;;;;;28.92;19.52;;;;;;;;;;5095474;28;20172;-70
2021/01/19 05:02:45;;;;;;;32.95;19.48;;;;;;;;;;5094437;28;20691;-68
2021/01/19 05:05:33;;;;;;;30.45;19.27;;;;;;;;;;5088072;28;20242;-72
2021/01/19 05:08:05;;;;;;;34.88;20.00;;;;;;;;;;5088168;28;20194;-71
2021/01/19 05:10:35;;;;;;;29.88;18.48;;;;;;;;;;5101525;28;20258;-70
2021/01/19 05:13:08;;;;;;;29.90;18.42;;;;;;;;;;5084566;28;20187;-73
2021/01/19 05:15:42;;;;;;;27.05;17.50;;;;;;;;;;5083904;28;20599;-72
2021/01/19 05:18:09;;;;;;;28.83;19.13;;;;;;;;;;5094352;28;20178;-72
2021/01/19 05:20:43;;;;;;;27.95;17.23;;;;;;;;;;5082938;28;20575;-70
2021/01/19 05:23:11;;;;;;;24.98;16.50;;;;;;;;;;5076280;28;20203;-73
2021/01/19 05:25:37;;;;;;;25.42;15.73;;;;;;;;;;5084718;28;20280;-72
2021/01/19 05:28:04;;;;;;;26.83;16.17;;;;;;;;;;5079320;28;20279;-73
2021/01/19 05:30:34;;;;;;;26.20;16.58;;;;;;;;;;5093405;28;20660;-73
2021/01/19 05:33:00;;;;;;;25.42;16.05;;;;;;;;;;5093949;28;20284;-71
2021/01/19 05:35:26;;;;;;;19.67;13.95;;;;;;;;;;5091811;28;20180;-71
2021/01/19 05:37:56;;;;;;;21.73;14.32;;;;;;;;;;5090033;28;20191;-71
2021/01/19 05:40:22;;;;;;;22.13;15.52;;;;;;;;;;5093350;28;20628;-72
2021/01/19 05:42:48;;;;;;;22.75;14.43;;;;;;;;;;5074192;28;20224;-72
2021/01/19 05:45:14;;;;;;;21.60;14.95;;;;;;;;;;5087454;28;20183;-72
2021/01/19 05:47:40;;;;;;;25.80;16.55;;;;;;;;;;5093691;28;20553;-72
2021/01/19 05:50:09;;;;;;;22.15;14.82;;;;;;;;;;5091908;28;20182;-73
2021/01/19 05:52:37;;;;;;;21.58;14.02;;;;;;;;;;5094084;28;20187;-73
2021/01/19 05:55:03;;;;;;;24.83;15.23;;;;;;;;;;5092963;28;20221;-70
2021/01/19 05:57:29;;;;;;;22.40;15.48;;;;;;;;;;5093567;28;20624;-70
2021/01/19 05:59:58;;;;;;;22.95;14.02;;;;;;;;;;5079765;28;20217;-72
2021/01/19 06:02:35;;;;;;;18.77;13.85;;;;;;;;;;5076316;28;20215;-71
2021/01/19 06:05:09;;;;;;;21.70;14.88;;;;;;;;;;5089212;28;20180;-71
2021/01/19 06:07:37;;;;;;;20.55;14.30;;;;;;;;;;5079091;28;20204;-71
2021/01/19 06:10:21;;;;;;;24.38;15.63;;;;;;;;;;5090903;28;20582;-72
2021/01/19 06:12:47;;;;;;;22.08;14.35;;;;;;;;;;5093628;28;20191;-72
2021/01/19 06:15:13;;;;;;;18.88;13.80;;;;;;;;;;5091481;28;20175;-73
2021/01/19 06:17:39;;;;;;;21.52;14.60;;;;;;;;;;5083796;28;20288;-71
2021/01/19 06:20:07;;;;;;;18.73;13.30;;;;;;;;;;5088702;28;20179;-73
2021/01/19 06:22:33;;;;;;;20.98;14.88;;;;;;;;;;5083594;28;20208;-70
2021/01/19 06:25:01;;;;;;;24.25;14.45;;;;;;;;;;5087610;28;20176;-70
2021/01/19 06:27:27;;;;;;;19.33;14.45;;;;;;;;;;5089768;28;20695;-72
2021/01/19 06:29:59;;;;;;;29.30;14.57;;;;;;;;;;5091157;28;20180;-72
2021/01/19 06:32:26;;;;;;;18.48;13.95;;;;;;;;;;5093348;28;20195;-70
2021/01/19 06:34:52;;;;;;;19.50;14.07;;;;;;;;;;5090493;28;20200;-71
2021/01/19 06:37:26;;;;;;;20.20;14.55;;;;;;;;;;5090424;28;20541;-71
2021/01/19 06:39:55;;;;;;;18.98;14.38;;;;;;;;;;5086457;28;20502;-72
2021/01/19 06:42:25;;;;;;;19.95;15.55;;;;;;;;;;5093771;28;20188;-71
2021/01/19 06:44:54;;;;;;;20.80;15.23;;;;;;;;;;5090996;28;20180;-72
2021/01/19 06:47:20;;;;;;;20.92;15.60;;;;;;;;;;5084433;28;20206;-72
2021/01/19 06:49:46;;;;;;;20.15;15.32;;;;;;;;;;5087763;28;20171;-71
2021/01/19 06:52:16;;;;;;;22.92;16.00;;;;;;;;;;5092635;28;20199;-71
2021/01/19 06:54:55;;;;;;;16.55;12.30;;;;;;;;;;5092508;28;20183;-72
2021/01/19 06:57:30;;;;;;;20.23;14.65;;;;;;;;;;5092599;28;20187;-71
2021/01/19 07:00:18;;;;;;;16.90;13.02;;;;;;;;;;5091579;28;20183;-71
2021/01/19 07:02:44;;;;;;;16.83;13.40;;;;;;;;;;5077972;28;20287;-72
2021/01/19 07:05:12;;;;;;;18.73;13.50;;;;;;;;;;5088035;28;20179;-71
2021/01/19 07:07:39;;;;;;;18.95;13.27;;;;;;;;;;5082030;28;20574;-71
2021/01/19 07:10:07;;;;;;;16.33;13.20;;;;;;;;;;5088016;28;20224;-71
2021/01/19 07:12:39;;;;;;;17.35;13.80;;;;;;;;;;5088770;28;20226;-72
2021/01/19 07:15:06;;;;;;;17.02;12.70;;;;;;;;;;5091610;28;20178;-70
2021/01/19 07:17:51;;;;;;;16.77;12.88;;;;;;;;;;5085725;28;20191;-71
2021/01/19 07:20:27;;;;;;;16.33;13.07;;;;;;;;;;5077440;28;20237;-71
2021/01/19 07:23:00;;;;;;;17.58;13.32;;;;;;;;;;5080339;28;20251;-72
2021/01/19 07:25:27;;;;;;;17.30;13.15;;;;;;;;;;5092589;28;20175;-71
2021/01/19 07:27:54;;;;;;;18.77;13.90;;;;;;;;;;5084868;28;20207;-71
2021/01/19 07:30:21;;;;;;;18.40;14.05;;;;;;;;;;5090761;28;20704;-71
2021/01/19 07:32:50;;;;;;;18.42;14.05;;;;;;;;;;5080725;28;20329;-73
2021/01/19 07:35:17;;;;;;;22.50;14.98;;;;;;;;;;5076767;28;20533;-72
2021/01/19 07:37:43;;;;;;;15.00;12.00;;;;;;;;;;5072822;28;20173;-71
2021/01/19 07:40:19;;;;;;;18.42;13.43;;;;;;;;;;5072314;28;20479;-72
2021/01/19 07:42:45;;;;;;;18.83;13.57;;;;;;;;;;5088051;28;20264;-72
2021/01/19 07:45:11;;;;;;;17.48;11.98;;;;;;;;;;5083873;28;20550;-71
2021/01/19 07:47:39;;;;;;;18.70;14.43;;;;;;;;;;5079735;28;20195;-74
2021/01/19 07:50:15;;;;;;;17.23;12.20;;;;;;;;;;5090956;28;20255;-70
2021/01/19 07:52:42;;;;;;;16.13;12.05;;;;;;;;;;5084663;28;20201;-72
2021/01/19 07:55:16;;;;;;;18.67;13.00;;;;;;;;;;5088537;28;20183;-70
2021/01/19 07:57:43;;;;;;;13.85;10.90;;;;;;;;;;5082662;28;20191;-73
2021/01/19 08:00:10;;;;;;;15.27;10.45;;;;;;;;;;5084304;28;20190;-72
2021/01/19 08:02:36;;;;;;;14.77;11.65;;;;;;;;;;5087087;28;20260;-71
2021/01/19 08:05:05;;;;;;;15.52;11.02;;;;;;;;;;5075124;28;20652;-72
2021/01/19 08:07:41;;;;;;;15.40;11.20;;;;;;;;;;5084093;28;20207;-73
2021/01/19 08:10:23;;;;;;;13.85;10.35;;;;;;;;;;5092077;28;20187;-71
2021/01/19 08:12:52;;;;;;;13.23;10.18;;;;;;;;;;5080803;28;20240;-72
2021/01/19 08:15:19;;;;;;;14.30;10.18;;;;;;;;;;5082496;28;20583;-72
2021/01/19 08:17:49;;;;;;;13.45;9.65;;;;;;;;;;5074904;28;20266;-72
2021/01/19 08:20:27;;;;;;;15.45;10.25;;;;;;;;;;5071823;28;20187;-72
2021/01/19 08:22:54;;;;;;;13.27;9.55;;;;;;;;;;5075170;28;20538;-70
2021/01/19 08:25:28;;;;;;;9.63;8.35;;;;;;;;;;5091363;28;20191;-72
2021/01/19 08:27:58;;;;;;;11.82;9.10;;;;;;;;;;5090999;28;20207;-72
2021/01/19 08:30:26;;;;;;;12.25;8.63;;;;;;;;;;5083310;28;20187;-72
2021/01/19 08:32:53;;;;;;;10.68;8.10;;;;;;;;;;5083872;28;20204;-72
2021/01/19 08:35:19;;;;;;;14.30;8.88;;;;;;;;;;5076670;28;20187;-72
2021/01/19 08:37:55;;;;;;;11.20;8.32;;;;;;;;;;5071747;28;20176;-72
2021/01/19 08:40:22;;;;;;;13.25;7.75;;;;;;;;;;5070762;28;20172;-72
2021/01/19 08:42:49;;;;;;;8.80;6.88;;;;;;;;;;5085981;28;20252;-71
2021/01/19 08:45:21;;;;;;;9.23;7.00;;;;;;;;;;5090501;28;20183;-72
2021/01/19 08:47:47;;;;;;;10.45;7.25;;;;;;;;;;5088559;28;20225;-71
2021/01/19 08:50:16;;;;;;;10.50;7.25;;;;;;;;;;5081498;28;20176;-73
2021/01/19 08:52:43;;;;;;;8.00;6.35;;;;;;;;;;5071801;28;20204;-72
2021/01/19 08:55:19;;;;;;;6.82;5.53;;;;;;;;;;5081817;28;20253;-73
2021/01/19 08:57:49;;;;;;;7.45;5.82;;;;;;;;;;5091158;28;20190;-72
2021/01/19 09:00:22;;;;;;;7.40;5.28;;;;;;;;;;5089492;28;20235;-72
2021/01/19 09:02:48;;;;;;;4.93;4.43;;;;;;;;;;5085907;28;20255;-74
2021/01/19 09:05:22;;;;;;;7.15;5.30;;;;;;;;;;5085592;28;20180;-72
2021/01/19 09:07:48;;;;;;;6.50;4.90;;;;;;;;;;5081817;28;20203;-71
2021/01/19 09:10:24;;;;;;;4.40;3.75;;;;;;;;;;5090407;28;20578;-72
2021/01/19 09:12:51;;;;;;;5.93;4.47;;;;;;;;;;5088700;28;20202;-71
2021/01/19 09:15:17;;;;;;;4.22;3.72;;;;;;;;;;5089333;28;20175;-72
2021/01/19 09:17:50;;;;;;;4.60;3.75;;;;;;;;;;5084526;28;20179;-70
2021/01/19 09:20:16;;;;;;;5.28;3.78;;;;;;;;;;5077738;28;20199;-72
2021/01/19 09:22:42;;;;;;;4.55;3.90;;;;;;;;;;5074648;28;20211;-72
2021/01/19 09:25:09;;;;;;;3.67;3.30;;;;;;;;;;5069072;28;20180;-72
2021/01/19 09:27:35;;;;;;;4.00;3.10;;;;;;;;;;5070676;28;20207;-71
2021/01/19 09:30:06;;;;;;;4.80;4.00;;;;;;;;;;5088836;28;20675;-71
2021/01/19 09:32:32;;;;;;;3.55;3.00;;;;;;;;;;5084896;28;20207;-72
2021/01/19 09:35:01;;;;;;;3.95;3.10;;;;;;;;;;5089893;28;20180;-72
2021/01/19 09:37:27;;;;;;;4.20;3.58;;;;;;;;;;5089249;28;20190;-72
2021/01/19 09:39:53;;;;;;;4.05;3.10;;;;;;;;;;5089390;28;20184;-72
2021/01/19 09:42:20;;;;;;;3.70;3.30;;;;;;;;;;5077332;28;20543;-73
2021/01/19 09:44:46;;;;;;;4.35;3.40;;;;;;;;;;5072369;28;20578;-72
2021/01/19 09:47:13;;;;;;;4.85;3.60;;;;;;;;;;5081148;28;20227;-72
2021/01/19 09:49:40;;;;;;;4.30;3.90;;;;;;;;;;5078861;28;20672;-73
2021/01/19 09:52:09;;;;;;;4.10;3.47;;;;;;;;;;5069983;28;20196;-72
2021/01/19 09:54:35;;;;;;;3.20;2.90;;;;;;;;;;5084997;28;20182;-73
2021/01/19 09:57:01;;;;;;;5.55;2.83;;;;;;;;;;5076511;28;20570;-72
2021/01/19 09:59:28;;;;;;;3.75;3.30;;;;;;;;;;5090059;28;20175;-72
2021/01/19 10:01:55;;;;;;;5.28;3.47;;;;;;;;;;5085156;28;20282;-73
2021/01/19 10:04:21;;;;;;;3.70;3.28;;;;;;;;;;5086747;28;20264;-72
2021/01/19 10:06:47;;;;;;;4.03;3.58;;;;;;;;;;5088802;28;20244;-73
2021/01/19 10:09:22;;;;;;;5.72;3.70;;;;;;;;;;5071635;28;20203;-72
2021/01/19 10:12:02;;;;;;;4.00;3.35;;;;;;;;;;5073655;28;20660;-73
2021/01/19 10:14:36;;;;;;;3.83;2.90;;;;;;;;;;5080020;28;20179;-73
2021/01/19 10:17:02;;;;;;;4.65;3.17;;;;;;;;;;5084690;28;20176;-72
2021/01/19 10:19:28;;;;;;;3.20;2.88;;;;;;;;;;5087885;28;20176;-73
2021/01/19 10:21:55;;;;;;;9.90;7.43;;;;;;;;;;5083705;28;20210;-73
2021/01/19 10:24:22;;;;;;;4.13;3.25;;;;;;;;;;5073191;28;20421;-73
2021/01/19 10:26:57;;;;;;;4.35;3.33;;;;;;;;;;5082215;28;20177;-72
2021/01/19 10:29:23;;;;;;;3.40;3.10;;;;;;;;;;5087053;28;20191;-73
2021/01/19 10:31:54;;;;;;;3.90;3.60;;;;;;;;;;5088548;28;20195;-73
2021/01/19 10:34:21;;;;;;;4.10;3.55;;;;;;;;;;5077765;28;20183;-72
2021/01/19 10:36:55;;;;;;;5.53;3.58;;;;;;;;;;5077848;28;20177;-74
2021/01/19 10:39:21;;;;;;;4.20;3.55;;;;;;;;;;5088966;28;20183;-71
2021/01/19 10:41:48;;;;;;;6.90;5.18;;;;;;;;;;5073093;28;20216;-72
2021/01/19 10:44:14;;;;;;;5.40;3.72;;;;;;;;;;5080033;28;20365;-74
2021/01/19 10:46:40;;;;;;;6.78;5.20;;;;;;;;;;5083441;28;20292;-72
2021/01/19 10:49:14;;;;;;;4.88;3.95;;;;;;;;;;5069107;28;20199;-72
2021/01/19 10:51:41;;;;;;;5.60;4.78;;;;;;;;;;5085390;28;20682;-73
2021/01/19 10:54:16;;;;;;;4.95;4.53;;;;;;;;;;5088821;28;20231;-72
2021/01/19 10:56:42;;;;;;;4.15;3.50;;;;;;;;;;5089030;28;20182;-74
2021/01/19 10:59:08;;;;;;;8.82;6.38;;;;;;;;;;5088759;28;20301;-71
2021/01/19 11:01:35;;;;;;;5.20;3.78;;;;;;;;;;5082186;28;20551;-72
2021/01/19 11:04:02;;;;;;;3.85;3.50;;;;;;;;;;5086548;28;20228;-72
2021/01/19 11:06:32;;;;;;;4.82;4.03;;;;;;;;;;5077938;28;20345;-72
2021/01/19 11:08:58;;;;;;;4.68;3.65;;;;;;;;;;5075219;28;20206;-72
2021/01/19 11:11:25;;;;;;;3.90;3.60;;;;;;;;;;5077393;28;20206;-73
2021/01/19 11:13:51;;;;;;;3.65;3.35;;;;;;;;;;5072507;28;20224;-73
2021/01/19 11:16:17;;;;;;;5.03;3.97;;;;;;;;;;5073128;28;20622;-73
2021/01/19 11:18:43;;;;;;;5.80;4.22;;;;;;;;;;5076411;28;20175;-71
2021/01/19 11:21:10;;;;;;;5.10;4.60;;;;;;;;;;5084069;28;20221;-72
2021/01/19 11:23:37;;;;;;;5.50;5.00;;;;;;;;;;5088583;28;20541;-72
2021/01/19 11:26:03;;;;;;;8.25;4.55;;;;;;;;;;5089205;28;20183;-72
2021/01/19 11:28:29;;;;;;;5.65;5.03;;;;;;;;;;5084738;28;20426;-71
2021/01/19 11:30:56;;;;;;;8.70;7.00;;;;;;;;;;5088632;28;20182;-71
2021/01/19 11:33:22;;;;;;;7.75;5.78;;;;;;;;;;5078003;28;20195;-71
2021/01/19 11:35:48;;;;;;;6.88;5.53;;;;;;;;;;5078807;28;21507;-71
2021/01/19 11:38:14;;;;;;;6.50;5.05;;;;;;;;;;5080009;28;20184;-71
2021/01/19 11:40:40;;;;;;;7.20;5.60;;;;;;;;;;5088556;28;20184;-71
2021/01/19 11:43:06;;;;;;;8.88;6.13;;;;;;;;;;5092777;28;20220;-72
2021/01/19 11:45:32;;;;;;;6.93;5.80;;;;;;;;;;5092331;28;20596;-71
2021/01/19 11:47:58;;;;;;;8.82;6.00;;;;;;;;;;5085880;28;20615;-71
2021/01/19 11:50:24;;;;;;;7.10;6.28;;;;;;;;;;5090879;28;20190;-71
2021/01/19 11:52:50;;;;;;;6.97;6.28;;;;;;;;;;5091281;28;20203;-72
2021/01/19 11:55:17;;;;;;;8.52;6.03;;;;;;;;;;5092346;28;20187;-70
2021/01/19 11:57:43;;;;;;;9.75;6.70;;;;;;;;;;5092410;28;20186;-71
2021/01/19 12:00:10;;;;;;;8.48;6.35;;;;;;;;;;5092571;28;20183;-71
2021/01/19 12:02:36;;;;;;;7.10;6.40;;;;;;;;;;5091714;28;20264;-72
2021/01/19 12:05:02;;;;;;;8.25;6.63;;;;;;;;;;5079235;28;20180;-72
2021/01/19 12:07:28;;;;;;;9.48;7.85;;;;;;;;;;5091195;28;20919;-71
2021/01/19 12:09:54;;;;;;;7.28;6.57;;;;;;;;;;5080704;28;20611;-72
2021/01/19 12:12:20;;;;;;;8.30;7.40;;;;;;;;;;5077160;28;20210;-72
2021/01/19 12:14:46;;;;;;;8.50;7.60;;;;;;;;;;5091932;28;20814;-71
2021/01/19 12:17:13;;;;;;;8.32;7.32;;;;;;;;;;5090459;28;20917;-71
2021/01/19 12:19:40;;;;;;;7.97;7.18;;;;;;;;;;5080856;28;20527;-71
2021/01/19 12:22:07;;;;;;;10.63;7.85;;;;;;;;;;5072107;28;20212;-70
2021/01/19 12:24:35;;;;;;;9.50;8.60;;;;;;;;;;5088657;28;20183;-70
2021/01/19 12:27:02;;;;;;;8.95;7.72;;;;;;;;;;5091828;28;20639;-71
2021/01/19 12:29:28;;;;;;;9.25;7.30;;;;;;;;;;5091786;28;20207;-69
2021/01/19 12:32:04;;;;;;;7.82;7.03;;;;;;;;;;5086522;28;20286;-70
2021/01/19 12:34:30;;;;;;;10.13;7.90;;;;;;;;;;5092028;28;20187;-71
2021/01/19 12:36:57;;;;;;;8.18;6.95;;;;;;;;;;5091451;28;20280;-71
2021/01/19 12:39:23;;;;;;;9.63;8.15;;;;;;;;;;5081115;28;20185;-71
2021/01/19 12:41:51;;;;;;;7.97;7.10;;;;;;;;;;5084975;28;20221;-70
2021/01/19 12:44:17;;;;;;;8.15;6.68;;;;;;;;;;5071048;28;20192;-70
2021/01/19 12:46:43;;;;;;;8.25;7.45;;;;;;;;;;5086106;28;20191;-70
2021/01/19 12:49:09;;;;;;;9.35;7.65;;;;;;;;;;5091114;28;20207;-71
2021/01/19 12:51:35;;;;;;;7.80;7.00;;;;;;;;;;5090352;28;20207;-71
2021/01/19 12:54:01;;;;;;;9.63;7.70;;;;;;;;;;5084172;28;20176;-71
2021/01/19 12:56:27;;;;;;;9.23;7.90;;;;;;;;;;5083051;28;20185;-71
2021/01/19 12:58:53;;;;;;;9.82;7.95;;;;;;;;;;5077906;28;20198;-70
2021/01/19 13:01:19;;;;;;;7.43;6.72;;;;;;;;;;5091591;28;20546;-72
2021/01/19 13:03:46;;;;;;;8.82;7.05;;;;;;;;;;5090836;28;20183;-71
2021/01/19 13:06:12;;;;;;;8.70;7.80;;;;;;;;;;5089648;28;20191;-72
2021/01/19 13:08:38;;;;;;;8.32;7.38;;;;;;;;;;5089357;28;20206;-72
2021/01/19 13:11:05;;;;;;;8.10;7.18;;;;;;;;;;5091030;28;20175;-72
2021/01/19 13:13:31;;;;;;;8.82;7.90;;;;;;;;;;5090337;28;20206;-72
2021/01/19 13:15:57;;;;;;;9.85;7.25;;;;;;;;;;5077794;28;20180;-72
2021/01/19 13:18:23;;;;;;;8.02;7.22;;;;;;;;;;5070545;28;20233;-70
2021/01/19 13:20:50;;;;;;;8.60;7.65;;;;;;;;;;5088680;28;20537;-70
2021/01/19 13:23:18;;;;;;;8.95;8.05;;;;;;;;;;5083226;28;20202;-70
2021/01/19 13:25:45;;;;;;;9.40;8.32;;;;;;;;;;5082651;28;20184;-71
2021/01/19 13:28:11;;;;;;;9.13;8.23;;;;;;;;;;5073214;28;20208;-71
2021/01/19 13:30:37;;;;;;;9.30;8.30;;;;;;;;;;5082634;28;20255;-72
2021/01/19 13:33:03;;;;;;;11.40;9.07;;;;;;;;;;5084629;28;20200;-71
2021/01/19 13:35:29;;;;;;;10.68;8.95;;;;;;;;;;5080391;28;20270;-70
2021/01/19 13:37:55;;;;;;;10.88;9.38;;;;;;;;;;5090783;28;20263;-70
2021/01/19 13:40:21;;;;;;;12.43;9.50;;;;;;;;;;5090046;28;20207;-69
2021/01/19 13:42:47;;;;;;;11.13;9.10;;;;;;;;;;5089127;28;20199;-70
2021/01/19 13:45:13;;;;;;;11.48;9.48;;;;;;;;;;5071460;28;20203;-70
2021/01/19 13:47:39;;;;;;;9.48;8.57;;;;;;;;;;5088163;28;20275;-70
2021/01/19 13:50:06;;;;;;;9.88;8.15;;;;;;;;;;5090120;28;20668;-71
2021/01/19 13:52:32;;;;;;;8.40;7.57;;;;;;;;;;5083495;28;20231;-70
2021/01/19 13:54:58;;;;;;;11.68;8.40;;;;;;;;;;5088305;28;20961;-72
2021/01/19 13:57:24;;;;;;;10.13;8.57;;;;;;;;;;5075589;28;20188;-71
2021/01/19 13:59:50;;;;;;;10.73;9.68;;;;;;;;;;5071850;28;20179;-72
2021/01/19 14:02:16;;;;;;;10.30;9.30;;;;;;;;;;5075095;28;20356;-72
2021/01/19 14:04:42;;;;;;;11.00;9.80;;;;;;;;;;5079264;28;20183;-72
2021/01/19 14:07:08;;;;;;;9.63;8.73;;;;;;;;;;5086555;28;20189;-72
2021/01/19 14:09:34;;;;;;;12.30;9.38;;;;;;;;;;5088843;28;20880;-72
2021/01/19 14:12:00;;;;;;;9.65;8.65;;;;;;;;;;5089272;28;20210;-72
2021/01/19 14:14:26;;;;;;;11.55;9.90;;;;;;;;;;5087741;28;20207;-71
2021/01/19 14:16:56;;;;;;;11.48;10.27;;;;;;;;;;5078230;28;20286;-72
2021/01/19 14:19:23;;;;;;;11.25;10.05;;;;;;;;;;5089257;28;20187;-72
2021/01/19 14:21:55;;;;;;;9.57;8.45;;;;;;;;;;5089945;28;20225;-72
2021/01/19 14:24:21;;;;;;;10.95;8.88;;;;;;;;;;5085376;28;20191;-71
2021/01/19 14:26:48;;;;;;;12.05;9.77;;;;;;;;;;5069770;28;20184;-73
2021/01/19 14:29:14;;;;;;;13.93;10.63;;;;;;;;;;5082456;28;20202;-70
2021/01/19 14:31:46;;;;;;;11.90;9.93;;;;;;;;;;5078039;28;20211;-71